sensor_id;sensor_type;location;lat;lon;timestamp;P1;durP1;ratioP1;P2;durP2;ratioP2
4084;SDS011;2057;50.858;6.572;2022-07-03T00:00:16;9.03;;;3.67;;
4084;SDS011;2057;50.858;6.572;2022-07-03T00:02:42;10.60;;;3.40;;
4084;SDS011;2057;50.858;6.572;2022-07-03T00:05:08;7.87;;;3.37;;
4084;SDS011;2057;50.858;6.572;2022-07-03T00:07:33;9.60;;;4.13;;
4084;SDS011;2057;50.858;6.572;2022-07-03T00:09:59;7.53;;;3.63;;
4084;SDS011;2057;50.858;6.572;2022-07-03T00:12:24;5.57;;;3.13;;
4084;SDS011;2057;50.858;6.572;2022-07-03T00:14:50;7.97;;;3.07;;
4084;SDS011;2057;50.858;6.572;2022-07-03T00:17:16;5.63;;;3.03;;
4084;SDS011;2057;50.858;6.572;2022-07-03T00:19:42;7.10;;;2.60;;
4084;SDS011;2057;50.858;6.572;2022-07-03T00:22:09;6.37;;;3.30;;
4084;SDS011;2057;50.858;6.572;2022-07-03T00:24:59;7.37;;;3.53;;
4084;SDS011;2057;50.858;6.572;2022-07-03T00:27:27;21.67;;;3.83;;
4084;SDS011;2057;50.858;6.572;2022-07-03T00:29:54;5.93;;;2.73;;
4084;SDS011;2057;50.858;6.572;2022-07-03T00:32:21;6.50;;;3.10;;
4084;SDS011;2057;50.858;6.572;2022-07-03T00:34:49;6.60;;;3.60;;
4084;SDS011;2057;50.858;6.572;2022-07-03T00:37:16;8.17;;;3.73;;
4084;SDS011;2057;50.858;6.572;2022-07-03T00:39:42;5.53;;;2.80;;
4084;SDS011;2057;50.858;6.572;2022-07-03T00:42:09;6.53;;;2.93;;
4084;SDS011;2057;50.858;6.572;2022-07-03T00:44:43;7.37;;;2.80;;
4084;SDS011;2057;50.858;6.572;2022-07-03T00:47:11;18.90;;;2.97;;
4084;SDS011;2057;50.858;6.572;2022-07-03T00:49:38;5.03;;;2.80;;
4084;SDS011;2057;50.858;6.572;2022-07-03T00:52:05;4.37;;;2.67;;
4084;SDS011;2057;50.858;6.572;2022-07-03T00:54:34;8.67;;;3.17;;
4084;SDS011;2057;50.858;6.572;2022-07-03T00:57:01;6.73;;;2.40;;
4084;SDS011;2057;50.858;6.572;2022-07-03T00:59:28;5.67;;;3.10;;
4084;SDS011;2057;50.858;6.572;2022-07-03T01:02:04;13.03;;;3.00;;
4084;SDS011;2057;50.858;6.572;2022-07-03T01:10:12;9.73;;;3.30;;
4084;SDS011;2057;50.858;6.572;2022-07-03T01:16:06;5.43;;;2.70;;
4084;SDS011;2057;50.858;6.572;2022-07-03T01:18:38;9.10;;;3.07;;
4084;SDS011;2057;50.858;6.572;2022-07-03T01:21:49;5.03;;;2.80;;
4084;SDS011;2057;50.858;6.572;2022-07-03T01:26:39;15.23;;;3.23;;
4084;SDS011;2057;50.858;6.572;2022-07-03T01:29:13;7.43;;;3.20;;
4084;SDS011;2057;50.858;6.572;2022-07-03T01:31:43;4.20;;;2.73;;
4084;SDS011;2057;50.858;6.572;2022-07-03T01:34:13;11.20;;;2.93;;
4084;SDS011;2057;50.858;6.572;2022-07-03T01:36:41;10.93;;;3.50;;
4084;SDS011;2057;50.858;6.572;2022-07-03T01:39:09;6.40;;;2.60;;
4084;SDS011;2057;50.858;6.572;2022-07-03T01:41:37;7.80;;;3.30;;
4084;SDS011;2057;50.858;6.572;2022-07-03T01:44:02;5.90;;;2.90;;
4084;SDS011;2057;50.858;6.572;2022-07-03T01:46:31;10.97;;;4.50;;
4084;SDS011;2057;50.858;6.572;2022-07-03T01:48:57;8.10;;;3.43;;
4084;SDS011;2057;50.858;6.572;2022-07-03T01:51:24;13.43;;;3.40;;
4084;SDS011;2057;50.858;6.572;2022-07-03T01:53:50;6.87;;;2.70;;
4084;SDS011;2057;50.858;6.572;2022-07-03T01:56:18;6.10;;;3.30;;
4084;SDS011;2057;50.858;6.572;2022-07-03T01:58:49;3.93;;;2.90;;
4084;SDS011;2057;50.858;6.572;2022-07-03T02:04:01;6.20;;;3.53;;
4084;SDS011;2057;50.858;6.572;2022-07-03T02:06:36;7.77;;;4.20;;
4084;SDS011;2057;50.858;6.572;2022-07-03T02:09:07;11.50;;;3.30;;
4084;SDS011;2057;50.858;6.572;2022-07-03T02:11:41;5.97;;;3.47;;
4084;SDS011;2057;50.858;6.572;2022-07-03T02:19:53;10.97;;;3.80;;
4084;SDS011;2057;50.858;6.572;2022-07-03T02:22:25;4.87;;;3.17;;
4084;SDS011;2057;50.858;6.572;2022-07-03T02:24:52;9.23;;;3.80;;
4084;SDS011;2057;50.858;6.572;2022-07-03T02:27:21;6.60;;;3.40;;
4084;SDS011;2057;50.858;6.572;2022-07-03T02:29:54;5.47;;;3.00;;
4084;SDS011;2057;50.858;6.572;2022-07-03T02:32:24;9.57;;;3.53;;
4084;SDS011;2057;50.858;6.572;2022-07-03T02:35:04;11.63;;;4.40;;
4084;SDS011;2057;50.858;6.572;2022-07-03T02:46:14;6.23;;;3.43;;
4084;SDS011;2057;50.858;6.572;2022-07-03T02:49:02;6.13;;;4.20;;
4084;SDS011;2057;50.858;6.572;2022-07-03T02:51:40;7.13;;;3.43;;
4084;SDS011;2057;50.858;6.572;2022-07-03T02:54:09;5.63;;;3.17;;
4084;SDS011;2057;50.858;6.572;2022-07-03T03:02:07;9.47;;;4.17;;
4084;SDS011;2057;50.858;6.572;2022-07-03T03:10:28;10.03;;;3.73;;
4084;SDS011;2057;50.858;6.572;2022-07-03T03:13:13;13.33;;;3.47;;
4084;SDS011;2057;50.858;6.572;2022-07-03T03:15:57;6.53;;;3.37;;
4084;SDS011;2057;50.858;6.572;2022-07-03T03:18:28;7.53;;;3.80;;
4084;SDS011;2057;50.858;6.572;2022-07-03T03:20:55;12.20;;;3.87;;
4084;SDS011;2057;50.858;6.572;2022-07-03T03:26:02;32.83;;;4.20;;
4084;SDS011;2057;50.858;6.572;2022-07-03T03:28:28;11.57;;;4.23;;
4084;SDS011;2057;50.858;6.572;2022-07-03T03:30:54;9.70;;;4.43;;
4084;SDS011;2057;50.858;6.572;2022-07-03T03:33:20;6.10;;;3.20;;
4084;SDS011;2057;50.858;6.572;2022-07-03T03:35:46;12.93;;;4.90;;
4084;SDS011;2057;50.858;6.572;2022-07-03T03:38:12;9.13;;;4.53;;
4084;SDS011;2057;50.858;6.572;2022-07-03T03:40:37;16.70;;;4.80;;
4084;SDS011;2057;50.858;6.572;2022-07-03T03:43:03;11.60;;;4.53;;
4084;SDS011;2057;50.858;6.572;2022-07-03T03:45:29;16.90;;;3.70;;
4084;SDS011;2057;50.858;6.572;2022-07-03T03:47:54;43.80;;;4.67;;
4084;SDS011;2057;50.858;6.572;2022-07-03T03:50:21;10.33;;;3.93;;
4084;SDS011;2057;50.858;6.572;2022-07-03T03:52:47;8.23;;;3.57;;
4084;SDS011;2057;50.858;6.572;2022-07-03T03:55:13;8.50;;;3.73;;
4084;SDS011;2057;50.858;6.572;2022-07-03T03:57:38;11.53;;;3.93;;
4084;SDS011;2057;50.858;6.572;2022-07-03T04:00:04;9.00;;;4.67;;
4084;SDS011;2057;50.858;6.572;2022-07-03T04:02:30;17.93;;;4.53;;
4084;SDS011;2057;50.858;6.572;2022-07-03T04:04:56;8.27;;;3.57;;
4084;SDS011;2057;50.858;6.572;2022-07-03T04:07:21;12.07;;;3.90;;
4084;SDS011;2057;50.858;6.572;2022-07-03T04:09:47;6.37;;;3.80;;
4084;SDS011;2057;50.858;6.572;2022-07-03T04:12:12;10.70;;;4.17;;
4084;SDS011;2057;50.858;6.572;2022-07-03T04:14:38;13.67;;;4.33;;
4084;SDS011;2057;50.858;6.572;2022-07-03T04:17:03;9.97;;;4.33;;
4084;SDS011;2057;50.858;6.572;2022-07-03T04:19:29;15.50;;;4.67;;
4084;SDS011;2057;50.858;6.572;2022-07-03T04:21:54;10.53;;;4.53;;
4084;SDS011;2057;50.858;6.572;2022-07-03T04:24:20;13.10;;;3.80;;
4084;SDS011;2057;50.858;6.572;2022-07-03T04:26:46;11.47;;;4.70;;
4084;SDS011;2057;50.858;6.572;2022-07-03T04:29:11;6.37;;;3.40;;
4084;SDS011;2057;50.858;6.572;2022-07-03T04:31:37;14.40;;;3.43;;
4084;SDS011;2057;50.858;6.572;2022-07-03T04:34:02;4.37;;;2.70;;
4084;SDS011;2057;50.858;6.572;2022-07-03T04:36:28;21.27;;;2.87;;
4084;SDS011;2057;50.858;6.572;2022-07-03T04:38:53;3.10;;;2.50;;
4084;SDS011;2057;50.858;6.572;2022-07-03T04:41:19;25.73;;;2.73;;
4084;SDS011;2057;50.858;6.572;2022-07-03T04:43:44;5.43;;;2.63;;
4084;SDS011;2057;50.858;6.572;2022-07-03T04:46:10;11.93;;;3.10;;
4084;SDS011;2057;50.858;6.572;2022-07-03T04:48:35;7.13;;;2.40;;
4084;SDS011;2057;50.858;6.572;2022-07-03T04:51:00;10.40;;;2.77;;
4084;SDS011;2057;50.858;6.572;2022-07-03T04:53:26;11.20;;;2.93;;
4084;SDS011;2057;50.858;6.572;2022-07-03T04:55:51;15.03;;;2.90;;
4084;SDS011;2057;50.858;6.572;2022-07-03T04:58:17;8.73;;;3.07;;
4084;SDS011;2057;50.858;6.572;2022-07-03T05:00:44;6.50;;;2.23;;
4084;SDS011;2057;50.858;6.572;2022-07-03T05:03:09;11.67;;;2.70;;
4084;SDS011;2057;50.858;6.572;2022-07-03T05:05:35;7.73;;;2.50;;
4084;SDS011;2057;50.858;6.572;2022-07-03T05:08:00;8.43;;;2.80;;
4084;SDS011;2057;50.858;6.572;2022-07-03T05:10:26;10.77;;;2.33;;
4084;SDS011;2057;50.858;6.572;2022-07-03T05:12:52;7.63;;;3.40;;
4084;SDS011;2057;50.858;6.572;2022-07-03T05:15:18;5.57;;;2.10;;
4084;SDS011;2057;50.858;6.572;2022-07-03T05:17:44;15.23;;;2.63;;
4084;SDS011;2057;50.858;6.572;2022-07-03T05:20:09;8.87;;;2.10;;
4084;SDS011;2057;50.858;6.572;2022-07-03T05:22:53;4.30;;;2.33;;
4084;SDS011;2057;50.858;6.572;2022-07-03T05:25:20;12.10;;;2.43;;
4084;SDS011;2057;50.858;6.572;2022-07-03T05:27:46;5.03;;;2.33;;
4084;SDS011;2057;50.858;6.572;2022-07-03T05:30:12;6.80;;;2.37;;
4084;SDS011;2057;50.858;6.572;2022-07-03T05:32:38;5.00;;;2.33;;
4084;SDS011;2057;50.858;6.572;2022-07-03T05:35:04;8.53;;;3.10;;
4084;SDS011;2057;50.858;6.572;2022-07-03T05:37:30;10.53;;;3.30;;
4084;SDS011;2057;50.858;6.572;2022-07-03T05:39:55;14.50;;;3.20;;
4084;SDS011;2057;50.858;6.572;2022-07-03T05:42:21;7.33;;;2.53;;
4084;SDS011;2057;50.858;6.572;2022-07-03T05:44:46;5.37;;;3.00;;
4084;SDS011;2057;50.858;6.572;2022-07-03T05:47:12;7.47;;;2.83;;
4084;SDS011;2057;50.858;6.572;2022-07-03T05:49:37;6.33;;;3.40;;
4084;SDS011;2057;50.858;6.572;2022-07-03T05:52:02;6.50;;;3.10;;
4084;SDS011;2057;50.858;6.572;2022-07-03T05:54:28;5.40;;;3.10;;
4084;SDS011;2057;50.858;6.572;2022-07-03T05:56:53;6.60;;;2.57;;
4084;SDS011;2057;50.858;6.572;2022-07-03T05:59:19;14.70;;;2.97;;
4084;SDS011;2057;50.858;6.572;2022-07-03T06:01:44;6.70;;;2.40;;
4084;SDS011;2057;50.858;6.572;2022-07-03T06:04:09;11.83;;;3.30;;
4084;SDS011;2057;50.858;6.572;2022-07-03T06:06:35;13.97;;;3.30;;
4084;SDS011;2057;50.858;6.572;2022-07-03T06:09:00;7.63;;;3.17;;
4084;SDS011;2057;50.858;6.572;2022-07-03T06:11:26;14.60;;;4.40;;
4084;SDS011;2057;50.858;6.572;2022-07-03T06:13:51;27.33;;;3.43;;
4084;SDS011;2057;50.858;6.572;2022-07-03T06:16:16;12.13;;;3.33;;
4084;SDS011;2057;50.858;6.572;2022-07-03T06:18:42;13.13;;;2.83;;
4084;SDS011;2057;50.858;6.572;2022-07-03T06:21:07;5.43;;;3.43;;
4084;SDS011;2057;50.858;6.572;2022-07-03T06:23:32;7.50;;;3.13;;
4084;SDS011;2057;50.858;6.572;2022-07-03T06:25:58;9.00;;;2.90;;
4084;SDS011;2057;50.858;6.572;2022-07-03T06:28:25;6.83;;;3.00;;
4084;SDS011;2057;50.858;6.572;2022-07-03T06:30:50;6.80;;;2.80;;
4084;SDS011;2057;50.858;6.572;2022-07-03T06:33:15;10.20;;;2.70;;
4084;SDS011;2057;50.858;6.572;2022-07-03T06:35:41;11.93;;;3.43;;
4084;SDS011;2057;50.858;6.572;2022-07-03T06:38:06;6.70;;;2.40;;
4084;SDS011;2057;50.858;6.572;2022-07-03T06:40:31;7.27;;;2.40;;
4084;SDS011;2057;50.858;6.572;2022-07-03T06:42:57;5.43;;;2.23;;
4084;SDS011;2057;50.858;6.572;2022-07-03T06:45:22;4.43;;;2.20;;
4084;SDS011;2057;50.858;6.572;2022-07-03T06:47:47;7.43;;;2.53;;
4084;SDS011;2057;50.858;6.572;2022-07-03T06:50:13;17.03;;;2.77;;
4084;SDS011;2057;50.858;6.572;2022-07-03T06:52:38;17.10;;;2.00;;
4084;SDS011;2057;50.858;6.572;2022-07-03T06:55:04;8.03;;;2.00;;
4084;SDS011;2057;50.858;6.572;2022-07-03T06:57:30;7.37;;;2.37;;
4084;SDS011;2057;50.858;6.572;2022-07-03T06:59:55;10.93;;;2.00;;
4084;SDS011;2057;50.858;6.572;2022-07-03T07:02:20;7.87;;;2.30;;
4084;SDS011;2057;50.858;6.572;2022-07-03T07:04:46;4.23;;;2.10;;
4084;SDS011;2057;50.858;6.572;2022-07-03T07:07:11;4.27;;;1.87;;
4084;SDS011;2057;50.858;6.572;2022-07-03T07:09:36;9.97;;;2.50;;
4084;SDS011;2057;50.858;6.572;2022-07-03T07:12:02;6.47;;;2.60;;
4084;SDS011;2057;50.858;6.572;2022-07-03T07:14:27;7.67;;;2.10;;
4084;SDS011;2057;50.858;6.572;2022-07-03T07:16:53;6.17;;;2.50;;
4084;SDS011;2057;50.858;6.572;2022-07-03T07:19:18;14.40;;;2.33;;
4084;SDS011;2057;50.858;6.572;2022-07-03T07:21:43;4.90;;;2.37;;
4084;SDS011;2057;50.858;6.572;2022-07-03T07:24:10;8.63;;;2.77;;
4084;SDS011;2057;50.858;6.572;2022-07-03T07:26:35;15.83;;;2.33;;
4084;SDS011;2057;50.858;6.572;2022-07-03T07:29:00;20.30;;;2.83;;
4084;SDS011;2057;50.858;6.572;2022-07-03T07:31:26;7.87;;;2.83;;
4084;SDS011;2057;50.858;6.572;2022-07-03T07:33:51;5.87;;;2.70;;
4084;SDS011;2057;50.858;6.572;2022-07-03T07:36:16;4.37;;;2.37;;
4084;SDS011;2057;50.858;6.572;2022-07-03T07:38:42;14.50;;;3.50;;
4084;SDS011;2057;50.858;6.572;2022-07-03T07:41:07;16.90;;;3.20;;
4084;SDS011;2057;50.858;6.572;2022-07-03T07:43:32;10.67;;;3.13;;
4084;SDS011;2057;50.858;6.572;2022-07-03T07:45:58;13.43;;;3.17;;
4084;SDS011;2057;50.858;6.572;2022-07-03T07:48:23;10.53;;;2.93;;
4084;SDS011;2057;50.858;6.572;2022-07-03T07:50:48;7.80;;;2.50;;
4084;SDS011;2057;50.858;6.572;2022-07-03T07:53:15;18.00;;;3.10;;
4084;SDS011;2057;50.858;6.572;2022-07-03T07:55:40;12.43;;;3.77;;
4084;SDS011;2057;50.858;6.572;2022-07-03T07:58:06;11.13;;;4.00;;
4084;SDS011;2057;50.858;6.572;2022-07-03T08:00:32;7.40;;;2.67;;
4084;SDS011;2057;50.858;6.572;2022-07-03T08:02:57;8.13;;;2.93;;
4084;SDS011;2057;50.858;6.572;2022-07-03T08:05:41;5.67;;;3.00;;
4084;SDS011;2057;50.858;6.572;2022-07-03T08:08:13;9.87;;;2.73;;
4084;SDS011;2057;50.858;6.572;2022-07-03T08:13:05;10.17;;;3.70;;
4084;SDS011;2057;50.858;6.572;2022-07-03T08:15:32;10.00;;;2.67;;
4084;SDS011;2057;50.858;6.572;2022-07-03T08:17:58;6.50;;;2.17;;
4084;SDS011;2057;50.858;6.572;2022-07-03T08:20:23;8.17;;;2.63;;
4084;SDS011;2057;50.858;6.572;2022-07-03T08:22:48;7.60;;;2.77;;
4084;SDS011;2057;50.858;6.572;2022-07-03T08:25:14;8.27;;;2.63;;
4084;SDS011;2057;50.858;6.572;2022-07-03T08:27:39;7.07;;;2.67;;
4084;SDS011;2057;50.858;6.572;2022-07-03T08:30:05;5.77;;;3.10;;
4084;SDS011;2057;50.858;6.572;2022-07-03T08:32:31;9.67;;;3.07;;
4084;SDS011;2057;50.858;6.572;2022-07-03T08:34:56;15.10;;;3.17;;
4084;SDS011;2057;50.858;6.572;2022-07-03T08:37:21;5.70;;;2.73;;
4084;SDS011;2057;50.858;6.572;2022-07-03T08:39:47;22.73;;;2.87;;
4084;SDS011;2057;50.858;6.572;2022-07-03T08:42:12;9.10;;;3.70;;
4084;SDS011;2057;50.858;6.572;2022-07-03T08:44:40;5.50;;;2.40;;
4084;SDS011;2057;50.858;6.572;2022-07-03T08:47:08;6.13;;;2.40;;
4084;SDS011;2057;50.858;6.572;2022-07-03T08:49:37;5.63;;;2.50;;
4084;SDS011;2057;50.858;6.572;2022-07-03T08:52:03;15.67;;;3.00;;
4084;SDS011;2057;50.858;6.572;2022-07-03T08:54:32;11.17;;;2.80;;
4084;SDS011;2057;50.858;6.572;2022-07-03T08:57:00;9.50;;;2.80;;
4084;SDS011;2057;50.858;6.572;2022-07-03T08:59:26;3.13;;;2.00;;
4084;SDS011;2057;50.858;6.572;2022-07-03T09:02:01;7.37;;;2.23;;
4084;SDS011;2057;50.858;6.572;2022-07-03T09:04:29;11.03;;;2.93;;
4084;SDS011;2057;50.858;6.572;2022-07-03T09:06:55;4.00;;;2.83;;
4084;SDS011;2057;50.858;6.572;2022-07-03T09:09:22;5.43;;;2.60;;
4084;SDS011;2057;50.858;6.572;2022-07-03T09:11:47;21.10;;;2.90;;
4084;SDS011;2057;50.858;6.572;2022-07-03T09:14:12;9.83;;;2.57;;
4084;SDS011;2057;50.858;6.572;2022-07-03T09:16:38;8.53;;;1.93;;
4084;SDS011;2057;50.858;6.572;2022-07-03T09:19:03;7.70;;;2.40;;
4084;SDS011;2057;50.858;6.572;2022-07-03T09:21:36;4.50;;;2.30;;
4084;SDS011;2057;50.858;6.572;2022-07-03T09:24:05;10.03;;;2.10;;
4084;SDS011;2057;50.858;6.572;2022-07-03T09:26:32;21.87;;;2.80;;
4084;SDS011;2057;50.858;6.572;2022-07-03T09:28:59;5.63;;;2.50;;
4084;SDS011;2057;50.858;6.572;2022-07-03T09:31:25;5.60;;;2.50;;
4084;SDS011;2057;50.858;6.572;2022-07-03T09:37:07;4.33;;;2.50;;
4084;SDS011;2057;50.858;6.572;2022-07-03T09:47:08;8.33;;;2.50;;
4084;SDS011;2057;50.858;6.572;2022-07-03T09:49:48;15.53;;;3.20;;
4084;SDS011;2057;50.858;6.572;2022-07-03T09:55:11;8.53;;;2.10;;
4084;SDS011;2057;50.858;6.572;2022-07-03T10:02:34;4.77;;;2.10;;
4084;SDS011;2057;50.858;6.572;2022-07-03T10:05:12;14.57;;;2.40;;
4084;SDS011;2057;50.858;6.572;2022-07-03T10:07:57;12.43;;;2.33;;
4084;SDS011;2057;50.858;6.572;2022-07-03T10:10:24;7.97;;;2.60;;
4084;SDS011;2057;50.858;6.572;2022-07-03T10:12:53;14.30;;;2.60;;
4084;SDS011;2057;50.858;6.572;2022-07-03T10:15:19;9.47;;;2.47;;
4084;SDS011;2057;50.858;6.572;2022-07-03T10:17:52;8.80;;;2.40;;
4084;SDS011;2057;50.858;6.572;2022-07-03T10:20:29;10.00;;;2.63;;
4084;SDS011;2057;50.858;6.572;2022-07-03T10:23:16;3.20;;;1.93;;
4084;SDS011;2057;50.858;6.572;2022-07-03T10:25:45;8.77;;;2.00;;
4084;SDS011;2057;50.858;6.572;2022-07-03T10:28:12;6.30;;;2.60;;
4084;SDS011;2057;50.858;6.572;2022-07-03T10:30:39;11.97;;;2.60;;
4084;SDS011;2057;50.858;6.572;2022-07-03T10:33:07;3.43;;;1.70;;
4084;SDS011;2057;50.858;6.572;2022-07-03T10:35:34;5.13;;;2.53;;
4084;SDS011;2057;50.858;6.572;2022-07-03T10:40:37;3.93;;;1.67;;
4084;SDS011;2057;50.858;6.572;2022-07-03T10:43:25;6.57;;;2.60;;
4084;SDS011;2057;50.858;6.572;2022-07-03T10:46:12;10.10;;;2.10;;
4084;SDS011;2057;50.858;6.572;2022-07-03T10:51:27;2.80;;;2.00;;
4084;SDS011;2057;50.858;6.572;2022-07-03T10:54:16;3.33;;;1.97;;
4084;SDS011;2057;50.858;6.572;2022-07-03T11:02:17;3.37;;;1.90;;
4084;SDS011;2057;50.858;6.572;2022-07-03T11:23:17;4.33;;;1.57;;
4084;SDS011;2057;50.858;6.572;2022-07-03T11:25:59;10.10;;;2.50;;
4084;SDS011;2057;50.858;6.572;2022-07-03T11:38:41;4.70;;;1.63;;
4084;SDS011;2057;50.858;6.572;2022-07-03T11:41:12;13.63;;;2.17;;
4084;SDS011;2057;50.858;6.572;2022-07-03T11:46:16;4.43;;;1.73;;
4084;SDS011;2057;50.858;6.572;2022-07-03T11:48:46;8.13;;;1.70;;
4084;SDS011;2057;50.858;6.572;2022-07-03T11:51:12;8.07;;;2.20;;
4084;SDS011;2057;50.858;6.572;2022-07-03T11:53:38;14.30;;;1.83;;
4084;SDS011;2057;50.858;6.572;2022-07-03T11:56:11;1.67;;;1.40;;
4084;SDS011;2057;50.858;6.572;2022-07-03T11:58:44;3.10;;;1.23;;
4084;SDS011;2057;50.858;6.572;2022-07-03T12:01:33;5.30;;;2.10;;
4084;SDS011;2057;50.858;6.572;2022-07-03T12:06:41;7.63;;;1.70;;
4084;SDS011;2057;50.858;6.572;2022-07-03T12:11:52;4.30;;;2.00;;
4084;SDS011;2057;50.858;6.572;2022-07-03T12:14:41;4.37;;;1.57;;
4084;SDS011;2057;50.858;6.572;2022-07-03T12:17:09;4.53;;;1.20;;
4084;SDS011;2057;50.858;6.572;2022-07-03T12:19:37;9.10;;;2.03;;
4084;SDS011;2057;50.858;6.572;2022-07-03T12:22:03;2.40;;;1.30;;
4084;SDS011;2057;50.858;6.572;2022-07-03T12:24:29;3.57;;;1.57;;
4084;SDS011;2057;50.858;6.572;2022-07-03T12:26:54;5.57;;;1.90;;
4084;SDS011;2057;50.858;6.572;2022-07-03T12:29:20;26.93;;;3.10;;
4084;SDS011;2057;50.858;6.572;2022-07-03T12:31:46;4.00;;;1.33;;
4084;SDS011;2057;50.858;6.572;2022-07-03T12:34:13;7.00;;;1.73;;
4084;SDS011;2057;50.858;6.572;2022-07-03T12:36:39;7.03;;;1.50;;
4084;SDS011;2057;50.858;6.572;2022-07-03T12:39:05;2.73;;;1.70;;
4084;SDS011;2057;50.858;6.572;2022-07-03T12:41:31;6.13;;;1.73;;
4084;SDS011;2057;50.858;6.572;2022-07-03T12:43:58;6.87;;;1.30;;
4084;SDS011;2057;50.858;6.572;2022-07-03T12:46:34;1.90;;;1.40;;
4084;SDS011;2057;50.858;6.572;2022-07-03T12:49:07;11.20;;;1.80;;
4084;SDS011;2057;50.858;6.572;2022-07-03T12:51:47;8.60;;;1.60;;
4084;SDS011;2057;50.858;6.572;2022-07-03T12:56:41;1.60;;;1.20;;
4084;SDS011;2057;50.858;6.572;2022-07-03T12:59:24;9.37;;;2.00;;
4084;SDS011;2057;50.858;6.572;2022-07-03T13:02:00;4.27;;;1.53;;
4084;SDS011;2057;50.858;6.572;2022-07-03T13:04:34;7.03;;;1.60;;
4084;SDS011;2057;50.858;6.572;2022-07-03T13:07:05;2.30;;;1.77;;
4084;SDS011;2057;50.858;6.572;2022-07-03T13:09:32;3.43;;;1.70;;
4084;SDS011;2057;50.858;6.572;2022-07-03T13:11:58;9.90;;;1.70;;
4084;SDS011;2057;50.858;6.572;2022-07-03T13:14:24;4.07;;;1.57;;
4084;SDS011;2057;50.858;6.572;2022-07-03T13:16:53;2.07;;;1.27;;
4084;SDS011;2057;50.858;6.572;2022-07-03T13:19:20;1.93;;;1.33;;
4084;SDS011;2057;50.858;6.572;2022-07-03T13:21:51;5.27;;;1.50;;
4084;SDS011;2057;50.858;6.572;2022-07-03T13:24:19;2.50;;;1.40;;
4084;SDS011;2057;50.858;6.572;2022-07-03T13:26:45;3.70;;;1.60;;
4084;SDS011;2057;50.858;6.572;2022-07-03T13:29:12;2.87;;;1.30;;
4084;SDS011;2057;50.858;6.572;2022-07-03T13:31:38;6.00;;;1.80;;
4084;SDS011;2057;50.858;6.572;2022-07-03T13:34:03;2.70;;;1.23;;
4084;SDS011;2057;50.858;6.572;2022-07-03T13:36:29;2.30;;;1.00;;
4084;SDS011;2057;50.858;6.572;2022-07-03T13:38:56;2.23;;;1.30;;
4084;SDS011;2057;50.858;6.572;2022-07-03T13:41:22;10.70;;;1.53;;
4084;SDS011;2057;50.858;6.572;2022-07-03T13:43:48;2.43;;;1.43;;
4084;SDS011;2057;50.858;6.572;2022-07-03T13:46:15;8.60;;;1.50;;
4084;SDS011;2057;50.858;6.572;2022-07-03T13:48:41;2.50;;;1.33;;
4084;SDS011;2057;50.858;6.572;2022-07-03T13:51:06;3.80;;;1.57;;
4084;SDS011;2057;50.858;6.572;2022-07-03T13:53:32;3.83;;;1.27;;
4084;SDS011;2057;50.858;6.572;2022-07-03T13:55:58;6.87;;;1.30;;
4084;SDS011;2057;50.858;6.572;2022-07-03T13:58:24;6.63;;;1.30;;
4084;SDS011;2057;50.858;6.572;2022-07-03T14:00:50;2.60;;;1.30;;
4084;SDS011;2057;50.858;6.572;2022-07-03T14:03:15;4.33;;;1.60;;
4084;SDS011;2057;50.858;6.572;2022-07-03T14:05:41;1.93;;;1.17;;
4084;SDS011;2057;50.858;6.572;2022-07-03T14:08:06;5.50;;;1.30;;
4084;SDS011;2057;50.858;6.572;2022-07-03T14:10:31;10.87;;;1.30;;
4084;SDS011;2057;50.858;6.572;2022-07-03T14:12:57;7.37;;;1.93;;
4084;SDS011;2057;50.858;6.572;2022-07-03T14:15:22;3.80;;;1.70;;
4084;SDS011;2057;50.858;6.572;2022-07-03T14:17:47;4.33;;;1.27;;
4084;SDS011;2057;50.858;6.572;2022-07-03T14:20:13;5.13;;;1.10;;
4084;SDS011;2057;50.858;6.572;2022-07-03T14:22:39;9.10;;;1.50;;
4084;SDS011;2057;50.858;6.572;2022-07-03T14:25:05;2.90;;;1.73;;
4084;SDS011;2057;50.858;6.572;2022-07-03T14:27:31;4.27;;;1.53;;
4084;SDS011;2057;50.858;6.572;2022-07-03T14:30:15;8.97;;;1.63;;
4084;SDS011;2057;50.858;6.572;2022-07-03T14:32:59;2.23;;;1.37;;
4084;SDS011;2057;50.858;6.572;2022-07-03T14:35:24;2.63;;;1.50;;
4084;SDS011;2057;50.858;6.572;2022-07-03T14:37:51;6.30;;;1.43;;
4084;SDS011;2057;50.858;6.572;2022-07-03T14:40:16;9.83;;;1.50;;
4084;SDS011;2057;50.858;6.572;2022-07-03T14:42:41;3.63;;;1.33;;
4084;SDS011;2057;50.858;6.572;2022-07-03T14:45:07;3.83;;;1.50;;
4084;SDS011;2057;50.858;6.572;2022-07-03T14:47:33;9.27;;;1.30;;
4084;SDS011;2057;50.858;6.572;2022-07-03T14:49:58;3.33;;;1.57;;
4084;SDS011;2057;50.858;6.572;2022-07-03T14:52:23;15.23;;;1.50;;
4084;SDS011;2057;50.858;6.572;2022-07-03T14:54:49;10.23;;;1.90;;
4084;SDS011;2057;50.858;6.572;2022-07-03T14:57:24;10.30;;;1.30;;
4084;SDS011;2057;50.858;6.572;2022-07-03T15:00:01;2.80;;;1.60;;
4084;SDS011;2057;50.858;6.572;2022-07-03T15:05:19;2.13;;;1.53;;
4084;SDS011;2057;50.858;6.572;2022-07-03T15:10:50;4.83;;;2.10;;
4084;SDS011;2057;50.858;6.572;2022-07-03T15:13:17;9.90;;;1.30;;
4084;SDS011;2057;50.858;6.572;2022-07-03T15:15:44;2.33;;;1.60;;
4084;SDS011;2057;50.858;6.572;2022-07-03T15:18:11;3.97;;;2.10;;
4084;SDS011;2057;50.858;6.572;2022-07-03T15:20:40;2.50;;;1.20;;
4084;SDS011;2057;50.858;6.572;2022-07-03T15:23:06;4.00;;;1.50;;
4084;SDS011;2057;50.858;6.572;2022-07-03T15:25:32;6.27;;;1.70;;
4084;SDS011;2057;50.858;6.572;2022-07-03T15:28:00;5.27;;;2.10;;
4084;SDS011;2057;50.858;6.572;2022-07-03T15:30:26;3.67;;;1.63;;
4084;SDS011;2057;50.858;6.572;2022-07-03T15:32:52;2.40;;;1.47;;
4084;SDS011;2057;50.858;6.572;2022-07-03T15:35:21;3.73;;;1.90;;
4084;SDS011;2057;50.858;6.572;2022-07-03T15:37:56;3.73;;;1.60;;
4084;SDS011;2057;50.858;6.572;2022-07-03T15:40:46;5.50;;;1.90;;
4084;SDS011;2057;50.858;6.572;2022-07-03T15:51:25;8.13;;;1.57;;
4084;SDS011;2057;50.858;6.572;2022-07-03T15:54:02;5.47;;;1.73;;
4084;SDS011;2057;50.858;6.572;2022-07-03T15:56:30;5.63;;;1.80;;
4084;SDS011;2057;50.858;6.572;2022-07-03T15:59:06;9.17;;;2.57;;
4084;SDS011;2057;50.858;6.572;2022-07-03T16:01:46;2.43;;;1.43;;
4084;SDS011;2057;50.858;6.572;2022-07-03T16:07:07;5.30;;;2.03;;
4084;SDS011;2057;50.858;6.572;2022-07-03T16:09:35;5.03;;;1.40;;
4084;SDS011;2057;50.858;6.572;2022-07-03T16:12:00;6.33;;;1.40;;
4084;SDS011;2057;50.858;6.572;2022-07-03T16:14:28;2.00;;;1.47;;
4084;SDS011;2057;50.858;6.572;2022-07-03T16:16:58;2.83;;;1.00;;
4084;SDS011;2057;50.858;6.572;2022-07-03T16:19:29;1.90;;;1.27;;
4084;SDS011;2057;50.858;6.572;2022-07-03T16:21:55;7.87;;;1.67;;
4084;SDS011;2057;50.858;6.572;2022-07-03T16:24:24;4.23;;;1.30;;
4084;SDS011;2057;50.858;6.572;2022-07-03T16:26:50;3.13;;;1.57;;
4084;SDS011;2057;50.858;6.572;2022-07-03T16:29:17;2.70;;;1.17;;
4084;SDS011;2057;50.858;6.572;2022-07-03T16:31:42;3.27;;;2.20;;
4084;SDS011;2057;50.858;6.572;2022-07-03T16:36:55;1.60;;;1.50;;
4084;SDS011;2057;50.858;6.572;2022-07-03T16:39:35;2.10;;;1.13;;
4084;SDS011;2057;50.858;6.572;2022-07-03T16:42:01;3.37;;;1.40;;
4084;SDS011;2057;50.858;6.572;2022-07-03T16:44:31;4.97;;;1.67;;
4084;SDS011;2057;50.858;6.572;2022-07-03T16:46:58;4.33;;;1.20;;
4084;SDS011;2057;50.858;6.572;2022-07-03T16:49:26;2.73;;;1.27;;
4084;SDS011;2057;50.858;6.572;2022-07-03T16:51:56;3.87;;;1.20;;
4084;SDS011;2057;50.858;6.572;2022-07-03T16:54:26;3.43;;;1.30;;
4084;SDS011;2057;50.858;6.572;2022-07-03T16:56:53;2.47;;;1.03;;
4084;SDS011;2057;50.858;6.572;2022-07-03T16:59:20;14.30;;;1.70;;
4084;SDS011;2057;50.858;6.572;2022-07-03T17:01:45;1.10;;;1.00;;
4084;SDS011;2057;50.858;6.572;2022-07-03T17:04:13;9.33;;;0.90;;
4084;SDS011;2057;50.858;6.572;2022-07-03T17:06:41;2.70;;;1.07;;
4084;SDS011;2057;50.858;6.572;2022-07-03T17:09:07;7.23;;;1.30;;
4084;SDS011;2057;50.858;6.572;2022-07-03T17:11:37;3.70;;;1.30;;
4084;SDS011;2057;50.858;6.572;2022-07-03T17:14:03;4.20;;;0.90;;
4084;SDS011;2057;50.858;6.572;2022-07-03T17:16:29;1.33;;;0.90;;
4084;SDS011;2057;50.858;6.572;2022-07-03T17:18:55;6.83;;;1.93;;
4084;SDS011;2057;50.858;6.572;2022-07-03T17:21:26;7.10;;;1.40;;
4084;SDS011;2057;50.858;6.572;2022-07-03T17:23:53;10.27;;;1.40;;
4084;SDS011;2057;50.858;6.572;2022-07-03T17:26:21;3.33;;;1.13;;
4084;SDS011;2057;50.858;6.572;2022-07-03T17:28:49;3.67;;;1.23;;
4084;SDS011;2057;50.858;6.572;2022-07-03T17:31:23;0.90;;;0.90;;